Time;durP1;ratioP1;P1;durP2;ratioP2;P2;SDS_P1;SDS_P2;PMS_P1;PMS_P2;Temp;Humidity;BMP_temperature;BMP_pressure;BME280_temperature;BME280_humidity;BME280_pressure;Samples;Min_cycle;Max_cycle;Signal;HPM_P1;HPM_P2
2022/01/21 00:00:08;;;;;;;0.80;0.70;;;19.30;57.40;;;;;;5053071;28;20017;-67
2022/01/21 00:02:34;;;;;;;1.25;0.50;;;19.20;57.50;;;;;;5053418;28;20021;-67
2022/01/21 00:05:00;;;;;;;1.58;0.77;;;19.20;57.40;;;;;;5052715;28;20023;-67
2022/01/21 00:07:25;;;;;;;0.52;0.50;;;19.30;57.50;;;;;;5042235;28;20065;-67
2022/01/21 00:09:51;;;;;;;0.85;0.68;;;19.20;57.50;;;;;;5032677;28;20450;-67
2022/01/21 00:12:17;;;;;;;0.80;0.77;;;19.20;57.50;;;;;;5032031;28;20032;-67
2022/01/21 00:14:43;;;;;;;1.73;0.70;;;19.20;57.50;;;;;;5039407;28;20097;-67
2022/01/21 00:17:09;;;;;;;0.90;0.80;;;19.20;57.50;;;;;;5051797;28;20032;-67
2022/01/21 00:19:39;;;;;;;0.60;0.60;;;19.20;57.50;;;;;;5052826;28;20031;-67
2022/01/21 00:30:20;;;;;;;1.77;0.70;;;19.20;57.60;;;;;;5051652;28;20395;-67
2022/01/21 00:32:46;;;;;;;0.93;0.68;;;19.20;57.60;;;;;;5051406;28;20104;-67
2022/01/21 00:35:12;;;;;;;0.80;0.80;;;19.20;57.70;;;;;;5034869;28;20060;-67
2022/01/21 00:37:38;;;;;;;0.93;0.80;;;19.20;57.60;;;;;;5052384;28;20060;-67
2022/01/21 00:40:05;;;;;;;0.55;0.52;;;19.20;57.60;;;;;;5052329;28;20028;-67
2022/01/21 00:45:11;;;;;;;0.63;0.60;;;19.20;57.70;;;;;;5051220;28;20120;-67
2022/01/21 00:47:36;;;;;;;0.70;0.70;;;19.20;57.70;;;;;;5035470;28;20024;-67
2022/01/21 00:50:03;;;;;;;1.13;0.70;;;19.20;57.70;;;;;;5050961;28;20020;-67
2022/01/21 00:52:28;;;;;;;1.08;0.80;;;19.20;57.70;;;;;;5050801;28;20021;-67
2022/01/21 00:54:54;;;;;;;0.88;0.85;;;19.20;57.70;;;;;;5050983;28;20035;-68
2022/01/21 00:57:19;;;;;;;1.40;0.60;;;19.20;57.70;;;;;;5052259;28;20403;-68
2022/01/21 00:59:45;;;;;;;1.65;0.65;;;19.20;57.80;;;;;;5051241;28;20029;-68
2022/01/21 01:02:11;;;;;;;1.20;0.70;;;19.20;57.80;;;;;;5052103;28;20082;-68
2022/01/21 01:04:36;;;;;;;1.08;0.57;;;19.20;57.90;;;;;;5034437;28;20056;-68
2022/01/21 01:07:02;;;;;;;1.60;0.80;;;19.20;57.80;;;;;;5044089;28;20039;-68
2022/01/21 01:09:28;;;;;;;0.65;0.65;;;19.20;57.80;;;;;;5031047;28;20400;-68
2022/01/21 01:20:07;;;;;;;0.80;0.60;;;19.20;58.00;;;;;;5051042;28;20031;-68
2022/01/21 01:27:54;;;;;;;0.45;0.40;;;19.20;58.00;;;;;;5050817;28;20059;-68
2022/01/21 01:30:21;;;;;;;2.15;0.60;;;19.20;58.00;;;;;;5050807;28;20021;-68
2022/01/21 01:32:48;;;;;;;0.57;0.57;;;19.20;58.00;;;;;;5050726;28;20025;-68
2022/01/21 01:35:15;;;;;;;0.90;0.60;;;19.30;58.10;;;;;;5050519;28;20375;-68
2022/01/21 01:40:40;;;;;;;1.20;0.60;;;19.30;58.00;;;;;;5052005;28;20514;-67
2022/01/21 01:50:54;;;;;;;1.35;0.63;;;19.20;58.10;;;;;;5051569;28;20120;-67
2022/01/21 01:53:21;;;;;;;0.70;0.50;;;19.20;58.10;;;;;;5034211;28;20013;-67
2022/01/21 01:55:47;;;;;;;0.70;0.70;;;19.20;58.10;;;;;;5050545;28;20601;-68
2022/01/21 01:58:14;;;;;;;1.58;0.70;;;19.20;58.10;;;;;;5050425;28;20088;-68
2022/01/21 02:00:40;;;;;;;1.20;0.93;;;19.20;58.10;;;;;;5050580;28;20056;-68
2022/01/21 02:03:07;;;;;;;0.70;0.60;;;19.20;58.10;;;;;;5033870;28;20044;-67
2022/01/21 02:05:33;;;;;;;1.15;0.75;;;19.20;58.10;;;;;;5050067;28;20032;-68
2022/01/21 02:07:58;;;;;;;0.60;0.60;;;19.20;58.10;;;;;;5019660;28;20116;-67
2022/01/21 02:10:24;;;;;;;1.40;0.70;;;19.20;58.10;;;;;;5032019;28;20086;-68
2022/01/21 02:12:50;;;;;;;0.60;0.60;;;19.20;58.20;;;;;;5034020;28;20388;-68
2022/01/21 02:15:15;;;;;;;1.02;0.60;;;19.20;58.10;;;;;;5045112;28;20032;-68
2022/01/21 02:22:51;;;;;;;0.65;0.60;;;19.20;58.20;;;;;;5054752;28;20028;-67
2022/01/21 02:25:19;;;;;;;0.65;0.60;;;19.20;58.20;;;;;;5055069;28;20388;-68
2022/01/21 02:27:47;;;;;;;0.73;0.57;;;19.20;58.20;;;;;;5037416;28;20049;-67
2022/01/21 02:30:18;;;;;;;0.60;0.60;;;19.20;58.20;;;;;;5053687;28;20099;-68
2022/01/21 02:32:54;;;;;;;0.90;0.60;;;19.20;58.20;;;;;;5053633;28;20143;-68
2022/01/21 02:35:19;;;;;;;1.08;0.80;;;19.30;58.30;;;;;;5054543;28;20023;-67
2022/01/21 02:37:46;;;;;;;0.80;0.50;;;19.20;58.30;;;;;;5036987;28;20036;-68
2022/01/21 02:40:12;;;;;;;0.50;0.50;;;19.20;58.20;;;;;;5036903;28;20064;-68
2022/01/21 02:42:38;;;;;;;0.82;0.40;;;19.20;58.60;;;;;;5054893;28;20108;-68
2022/01/21 02:45:05;;;;;;;0.60;0.60;;;19.20;58.30;;;;;;5054550;28;20155;-68
2022/01/21 02:47:30;;;;;;;0.65;0.63;;;19.20;58.20;;;;;;5036383;28;20397;-67
2022/01/21 02:49:56;;;;;;;0.68;0.57;;;19.20;58.30;;;;;;5053354;28;20021;-68
2022/01/21 02:52:25;;;;;;;0.55;0.55;;;19.20;58.30;;;;;;5053405;28;20142;-68
2022/01/21 02:54:51;;;;;;;0.70;0.65;;;19.20;58.30;;;;;;5054462;28;20112;-68
2022/01/21 02:57:16;;;;;;;0.52;0.52;;;19.20;58.30;;;;;;5053093;28;20450;-67
2022/01/21 02:59:42;;;;;;;0.60;0.60;;;19.20;58.30;;;;;;5053087;28;20447;-67
2022/01/21 03:02:08;;;;;;;0.98;0.60;;;19.20;58.30;;;;;;5053831;28;20017;-67
2022/01/21 03:04:44;;;;;;;0.55;0.40;;;19.20;58.30;;;;;;5054308;28;20021;-68
2022/01/21 03:07:09;;;;;;;0.43;0.43;;;19.20;58.40;;;;;;5045509;28;20087;-68
2022/01/21 03:09:35;;;;;;;0.40;0.40;;;19.20;58.30;;;;;;5033108;28;20033;-68
2022/01/21 03:12:00;;;;;;;0.50;0.50;;;19.20;58.30;;;;;;5033063;28;20105;-67
2022/01/21 03:14:26;;;;;;;2.38;0.75;;;19.10;58.30;;;;;;5037268;28;20060;-68
2022/01/21 03:16:52;;;;;;;0.50;0.50;;;19.20;58.30;;;;;;5052624;28;20060;-68
2022/01/21 03:19:17;;;;;;;0.70;0.70;;;19.20;58.40;;;;;;5036229;28;20108;-68
2022/01/21 03:21:43;;;;;;;0.40;0.40;;;19.20;58.40;;;;;;5051788;28;20033;-68
2022/01/21 03:24:09;;;;;;;1.02;0.60;;;19.20;58.40;;;;;;5053790;28;20052;-68
2022/01/21 03:26:34;;;;;;;0.73;0.40;;;19.20;58.40;;;;;;5052646;28;20517;-68
2022/01/21 03:29:01;;;;;;;0.60;0.60;;;19.10;58.30;;;;;;5052383;28;20060;-68
2022/01/21 03:31:27;;;;;;;0.65;0.50;;;19.20;58.40;;;;;;5052185;28;20480;-68
2022/01/21 03:33:52;;;;;;;0.50;0.50;;;19.10;58.30;;;;;;5052449;28;20028;-68
2022/01/21 03:36:19;;;;;;;0.95;0.40;;;19.20;58.30;;;;;;5052504;28;20021;-68
2022/01/21 03:38:44;;;;;;;0.73;0.57;;;19.10;58.30;;;;;;5053566;28;20032;-68
2022/01/21 03:41:10;;;;;;;0.70;0.60;;;19.10;58.30;;;;;;5052361;28;20025;-68
2022/01/21 03:43:36;;;;;;;0.60;0.60;;;19.10;58.30;;;;;;5052373;28;20506;-68
2022/01/21 03:46:03;;;;;;;0.57;0.50;;;19.10;58.30;;;;;;5051786;28;20032;-68
2022/01/21 03:48:29;;;;;;;1.60;0.50;;;19.10;58.30;;;;;;5035847;28;20081;-68
2022/01/21 03:50:56;;;;;;;2.33;0.60;;;19.10;58.40;;;;;;5053502;28;20104;-68
2022/01/21 03:53:21;;;;;;;0.60;0.40;;;19.20;58.40;;;;;;5053249;28;20522;-68
2022/01/21 03:55:47;;;;;;;0.70;0.40;;;19.10;58.40;;;;;;5052250;28;20025;-68
2022/01/21 03:58:13;;;;;;;0.68;0.50;;;19.10;58.40;;;;;;5053104;28;20033;-68
2022/01/21 04:00:47;;;;;;;0.50;0.50;;;19.10;58.40;;;;;;5051884;28;20021;-68
2022/01/21 04:03:12;;;;;;;0.47;0.47;;;19.10;58.40;;;;;;5051785;28;20095;-68
2022/01/21 04:05:38;;;;;;;0.30;0.30;;;19.10;58.50;;;;;;5051919;28;20467;-68
2022/01/21 04:08:04;;;;;;;0.30;0.30;;;19.10;58.40;;;;;;5020254;28;20426;-67
2022/01/21 04:10:30;;;;;;;0.50;0.43;;;19.10;58.40;;;;;;5032017;28;20026;-67
2022/01/21 04:12:56;;;;;;;1.05;0.60;;;19.10;58.40;;;;;;5031860;28;20021;-67
2022/01/21 04:15:22;;;;;;;0.77;0.50;;;19.10;58.40;;;;;;5044437;28;20013;-67
2022/01/21 04:17:48;;;;;;;0.65;0.60;;;19.10;58.40;;;;;;5052994;28;20021;-67
2022/01/21 04:20:14;;;;;;;1.20;0.40;;;19.10;58.40;;;;;;5052691;28;20021;-67
2022/01/21 04:22:39;;;;;;;0.70;0.43;;;19.10;58.40;;;;;;5052916;28;20021;-67
2022/01/21 04:25:06;;;;;;;0.60;0.50;;;19.10;58.40;;;;;;5052711;28;20040;-67
2022/01/21 04:27:31;;;;;;;0.63;0.40;;;19.10;58.40;;;;;;5034819;28;20045;-67
2022/01/21 04:29:57;;;;;;;0.85;0.45;;;19.10;58.50;;;;;;5051315;28;20391;-67
2022/01/21 04:32:23;;;;;;;1.52;0.60;;;19.10;58.40;;;;;;5052290;28;20479;-67
2022/01/21 04:34:48;;;;;;;0.40;0.40;;;19.10;58.40;;;;;;5052672;28;20488;-67
2022/01/21 04:37:16;;;;;;;0.40;0.40;;;19.10;58.40;;;;;;5051273;28;20036;-68
2022/01/21 04:40:31;;;;;;;0.43;0.40;;;19.10;58.50;;;;;;5051463;28;20529;-68
2022/01/21 04:47:55;;;;;;;1.50;0.50;;;19.10;58.50;;;;;;5051713;28;20060;-67
2022/01/21 04:50:21;;;;;;;1.17;0.40;;;19.10;58.60;;;;;;5052282;28;20025;-67
2022/01/21 04:52:47;;;;;;;0.60;0.40;;;19.10;58.60;;;;;;5051147;28;20555;-67
2022/01/21 04:55:14;;;;;;;0.65;0.40;;;19.10;58.50;;;;;;5051289;28;20017;-67
2022/01/21 04:57:39;;;;;;;0.63;0.50;;;19.10;58.50;;;;;;5050996;28;20396;-67
2022/01/21 05:00:06;;;;;;;0.43;0.43;;;19.10;58.50;;;;;;5050907;28;20025;-67
2022/01/21 05:02:33;;;;;;;0.40;0.30;;;19.10;58.50;;;;;;5052009;28;20025;-67
2022/01/21 05:04:59;;;;;;;0.88;0.50;;;19.10;58.50;;;;;;5052215;28;20085;-67
2022/01/21 05:07:26;;;;;;;0.38;0.30;;;19.10;58.60;;;;;;5042472;28;20112;-67
2022/01/21 05:09:52;;;;;;;0.82;0.40;;;19.10;58.50;;;;;;5031202;28;20561;-67
2022/01/21 05:12:20;;;;;;;0.63;0.40;;;19.10;58.50;;;;;;5032189;28;20049;-68
2022/01/21 05:17:12;;;;;;;0.50;0.38;;;19.10;58.50;;;;;;5034559;28;20033;-68
2022/01/21 05:19:38;;;;;;;0.40;0.40;;;19.10;58.60;;;;;;5034303;28;20028;-68
2022/01/21 05:22:04;;;;;;;0.40;0.40;;;19.10;58.60;;;;;;5050959;28;20025;-68
2022/01/21 05:24:30;;;;;;;0.88;0.50;;;19.10;58.60;;;;;;5050668;28;20017;-68
2022/01/21 05:26:58;;;;;;;0.82;0.50;;;19.10;58.60;;;;;;5034104;28;20460;-67
2022/01/21 05:29:31;;;;;;;0.50;0.50;;;19.10;58.60;;;;;;5051582;28;20029;-67
2022/01/21 05:31:57;;;;;;;0.30;0.30;;;19.10;58.60;;;;;;5051015;28;20021;-67
2022/01/21 05:34:23;;;;;;;1.55;0.40;;;19.10;58.60;;;;;;5050508;28;20092;-67
2022/01/21 05:36:48;;;;;;;0.50;0.47;;;19.10;58.70;;;;;;5034442;28;20555;-67
2022/01/21 05:39:15;;;;;;;1.63;0.50;;;19.10;58.60;;;;;;5034293;28;20028;-67
2022/01/21 05:41:47;;;;;;;0.50;0.50;;;19.10;58.60;;;;;;5050506;28;20061;-67
2022/01/21 05:44:19;;;;;;;0.47;0.47;;;19.10;58.70;;;;;;5051796;28;20108;-67
2022/01/21 05:49:16;;;;;;;1.65;0.60;;;19.10;58.60;;;;;;5055814;28;20043;-67
2022/01/21 05:51:42;;;;;;;0.50;0.40;;;19.10;58.60;;;;;;5054568;28;20343;-67
2022/01/21 05:54:09;;;;;;;0.75;0.57;;;19.10;59.70;;;;;;5054455;28;20021;-67
2022/01/21 05:56:35;;;;;;;1.25;0.40;;;19.10;58.70;;;;;;5037442;28;20032;-67
2022/01/21 05:59:00;;;;;;;0.47;0.30;;;19.10;58.70;;;;;;5054293;28;20483;-67
2022/01/21 06:01:29;;;;;;;1.15;0.63;;;19.10;58.70;;;;;;5055380;28;20037;-67
2022/01/21 06:03:54;;;;;;;1.67;0.30;;;19.10;58.70;;;;;;5054273;28;20059;-67
2022/01/21 06:06:20;;;;;;;1.27;0.57;;;19.10;58.70;;;;;;5053230;28;20419;-67
2022/01/21 06:08:46;;;;;;;0.70;0.50;;;19.10;58.70;;;;;;5035382;28;20026;-67
2022/01/21 06:11:11;;;;;;;0.80;0.30;;;19.10;58.70;;;;;;5033858;28;20026;-68
2022/01/21 06:13:38;;;;;;;0.50;0.50;;;19.10;58.70;;;;;;5034108;28;20022;-68
2022/01/21 06:16:04;;;;;;;0.30;0.30;;;19.10;58.70;;;;;;5052830;28;20021;-67
2022/01/21 06:18:29;;;;;;;0.45;0.38;;;19.10;58.70;;;;;;5053927;28;20100;-67
2022/01/21 06:20:55;;;;;;;0.77;0.47;;;19.10;58.70;;;;;;5037428;28;20037;-67
2022/01/21 06:23:21;;;;;;;0.60;0.50;;;19.00;58.70;;;;;;5054932;28;20032;-68
2022/01/21 06:25:46;;;;;;;1.23;0.40;;;19.10;58.80;;;;;;5054700;28;20447;-68
2022/01/21 06:28:12;;;;;;;0.57;0.45;;;19.00;58.70;;;;;;5050319;28;20048;-68
2022/01/21 06:30:38;;;;;;;0.50;0.40;;;19.00;58.70;;;;;;5035189;28;20041;-68
2022/01/21 06:33:03;;;;;;;2.92;0.75;;;19.00;58.70;;;;;;5053303;28;20507;-68
2022/01/21 06:35:29;;;;;;;0.55;0.40;;;19.00;58.70;;;;;;5053358;28;20025;-68
2022/01/21 06:37:55;;;;;;;0.35;0.35;;;19.00;58.70;;;;;;5052257;28;20020;-68
2022/01/21 06:40:20;;;;;;;0.30;0.30;;;19.00;58.70;;;;;;5051364;28;20406;-68
2022/01/21 06:42:50;;;;;;;0.35;0.35;;;19.00;58.70;;;;;;5052050;28;20545;-67
2022/01/21 06:45:16;;;;;;;0.82;0.40;;;19.10;58.70;;;;;;5036760;28;20024;-68
2022/01/21 06:47:42;;;;;;;1.15;0.60;;;19.00;58.60;;;;;;5045931;28;20545;-70
2022/01/21 06:50:08;;;;;;;0.68;0.45;;;19.00;58.60;;;;;;5045408;28;20021;-68
2022/01/21 06:52:34;;;;;;;1.65;0.82;;;19.00;58.60;;;;;;5018346;28;20147;-68
2022/01/21 06:55:00;;;;;;;0.65;0.40;;;19.00;58.50;;;;;;5033094;28;20030;-68
2022/01/21 06:57:26;;;;;;;0.63;0.30;;;19.00;58.50;;;;;;5024234;28;20024;-68
2022/01/21 06:59:51;;;;;;;0.40;0.40;;;19.00;58.50;;;;;;5032864;28;20026;-68
2022/01/21 07:02:18;;;;;;;0.52;0.50;;;19.00;58.40;;;;;;5033193;28;20036;-68
2022/01/21 07:04:45;;;;;;;3.30;0.57;;;18.90;58.40;;;;;;5049503;28;20056;-68
2022/01/21 07:07:11;;;;;;;0.50;0.40;;;18.90;58.40;;;;;;5022921;28;20064;-68
2022/01/21 07:09:36;;;;;;;1.42;0.60;;;18.90;58.40;;;;;;5043306;28;20049;-68
2022/01/21 07:12:02;;;;;;;0.50;0.40;;;18.90;58.40;;;;;;5046619;28;20032;-68
2022/01/21 07:14:28;;;;;;;0.55;0.50;;;18.90;58.30;;;;;;5039191;28;20096;-68
2022/01/21 07:16:54;;;;;;;2.25;0.70;;;18.90;58.30;;;;;;5049713;28;20063;-68
2022/01/21 07:19:19;;;;;;;0.30;0.30;;;18.90;58.30;;;;;;5040358;28;20025;-68
2022/01/21 07:21:45;;;;;;;0.75;0.45;;;18.90;58.30;;;;;;5042436;28;20021;-68
2022/01/21 07:24:10;;;;;;;0.65;0.50;;;18.80;58.10;;;;;;5046736;28;20032;-68
2022/01/21 07:26:36;;;;;;;0.47;0.40;;;18.90;58.30;;;;;;5036857;28;20392;-68
2022/01/21 07:29:02;;;;;;;0.63;0.60;;;18.80;58.10;;;;;;5046932;28;20045;-68
2022/01/21 07:31:28;;;;;;;1.10;0.68;;;18.80;58.10;;;;;;5041026;28;20029;-68
2022/01/21 07:33:54;;;;;;;0.65;0.57;;;18.80;58.10;;;;;;5041347;28;20021;-68
2022/01/21 07:36:19;;;;;;;0.82;0.70;;;18.80;58.20;;;;;;5031428;28;20466;-69
2022/01/21 07:38:45;;;;;;;1.77;0.70;;;18.80;58.10;;;;;;5036423;28;20033;-68
2022/01/21 07:41:11;;;;;;;8.23;1.42;;;18.80;58.10;;;;;;5047269;28;20024;-67
2022/01/21 07:43:36;;;;;;;9.68;2.10;;;18.80;58.10;;;;;;5032271;28;20052;-67
2022/01/21 07:46:02;;;;;;;6.05;1.65;;;18.80;58.20;;;;;;5032826;28;20028;-67
2022/01/21 07:48:28;;;;;;;7.15;1.73;;;18.80;58.20;;;;;;5032230;28;20104;-67
2022/01/21 07:50:53;;;;;;;7.72;1.30;;;18.80;58.30;;;;;;5033283;28;20025;-67
2022/01/21 07:53:19;;;;;;;5.72;1.30;;;18.80;58.30;;;;;;5031856;28;20018;-67
2022/01/21 07:55:45;;;;;;;7.60;1.45;;;18.80;58.40;;;;;;5033227;28;20029;-67
2022/01/21 07:58:12;;;;;;;7.88;1.77;;;18.80;58.40;;;;;;5032036;28;20029;-67
2022/01/21 08:00:37;;;;;;;5.30;1.55;;;18.80;58.30;;;;;;5031960;28;20021;-67
2022/01/21 08:03:04;;;;;;;5.75;1.40;;;18.80;58.40;;;;;;5031728;28;20036;-67
2022/01/21 08:05:32;;;;;;;7.40;1.58;;;18.80;58.30;;;;;;5040239;28;20049;-67
2022/01/21 08:07:58;;;;;;;5.55;1.70;;;18.90;58.50;;;;;;5043021;28;20029;-67
2022/01/21 08:10:23;;;;;;;6.43;1.48;;;18.80;58.40;;;;;;5051818;28;20150;-67
2022/01/21 08:12:49;;;;;;;8.60;1.63;;;18.80;58.40;;;;;;5040897;28;20029;-67
2022/01/21 08:15:15;;;;;;;5.55;1.42;;;18.80;58.40;;;;;;5033019;28;20408;-67
2022/01/21 08:17:40;;;;;;;4.93;1.38;;;18.80;58.40;;;;;;5031764;28;20403;-67
2022/01/21 08:20:06;;;;;;;6.75;1.75;;;18.80;58.40;;;;;;5033426;28;20029;-67
2022/01/21 08:22:32;;;;;;;5.78;1.35;;;18.80;58.40;;;;;;5052460;28;20025;-67
2022/01/21 08:24:58;;;;;;;6.53;1.25;;;18.80;58.40;;;;;;5052704;28;20035;-67
2022/01/21 08:27:24;;;;;;;6.78;1.48;;;18.80;58.40;;;;;;5052572;28;20045;-67
2022/01/21 08:29:50;;;;;;;5.28;1.30;;;18.80;58.40;;;;;;5051508;28;20396;-67
2022/01/21 08:32:16;;;;;;;3.85;1.27;;;18.80;58.40;;;;;;5051477;28;20052;-67
2022/01/21 08:34:41;;;;;;;5.55;0.98;;;18.80;58.40;;;;;;5051434;28;20075;-67
2022/01/21 08:37:07;;;;;;;6.63;1.20;;;18.80;58.40;;;;;;5051161;28;20036;-67
2022/01/21 08:39:33;;;;;;;4.63;1.15;;;18.80;58.40;;;;;;5031385;28;20025;-67
2022/01/21 08:41:58;;;;;;;4.80;1.27;;;18.80;58.30;;;;;;5031525;28;20029;-67
2022/01/21 08:44:24;;;;;;;4.47;1.38;;;18.70;58.30;;;;;;5031339;28;20053;-67
2022/01/21 08:46:49;;;;;;;3.33;1.27;;;18.70;58.30;;;;;;5032387;28;20108;-67
2022/01/21 08:49:18;;;;;;;4.68;1.35;;;18.80;58.30;;;;;;5031461;28;20042;-67
2022/01/21 08:51:53;;;;;;;3.92;1.33;;;18.70;58.30;;;;;;5032200;28;20027;-67
2022/01/21 08:54:19;;;;;;;4.07;1.10;;;18.70;58.30;;;;;;5031139;28;20018;-67
2022/01/21 08:56:45;;;;;;;2.83;1.13;;;18.70;58.30;;;;;;5031189;28;20079;-67
2022/01/21 08:59:11;;;;;;;5.65;1.23;;;18.70;58.20;;;;;;5032488;28;20476;-67
2022/01/21 09:01:36;;;;;;;2.95;1.13;;;18.70;59.30;;;;;;5031137;28;20028;-67
2022/01/21 09:04:02;;;;;;;4.95;1.27;;;18.70;58.30;;;;;;5031968;28;20491;-67
2022/01/21 09:06:29;;;;;;;2.53;1.00;;;18.70;58.30;;;;;;5031956;28;20041;-67
2022/01/21 09:08:58;;;;;;;4.90;1.50;;;18.70;58.20;;;;;;5032226;28;20018;-67
2022/01/21 09:11:24;;;;;;;2.65;1.25;;;18.70;58.20;;;;;;5032336;28;20022;-67
2022/01/21 09:13:50;;;;;;;7.03;1.20;;;18.70;58.20;;;;;;5050881;28;20029;-67
2022/01/21 09:16:16;;;;;;;3.13;0.82;;;18.70;58.20;;;;;;5034326;28;20060;-67
2022/01/21 09:18:50;;;;;;;3.13;1.20;;;18.70;58.20;;;;;;5050937;28;20021;-67
2022/01/21 09:21:20;;;;;;;3.97;1.17;;;18.70;58.20;;;;;;5054065;28;20025;-67
2022/01/21 09:23:49;;;;;;;2.35;0.82;;;18.70;58.20;;;;;;5056031;28;20491;-67
2022/01/21 09:26:19;;;;;;;3.15;1.25;;;18.70;58.20;;;;;;5055018;28;20032;-67
2022/01/21 09:28:45;;;;;;;3.15;1.10;;;18.70;58.20;;;;;;5038199;28;20179;-67
2022/01/21 09:31:10;;;;;;;2.08;0.80;;;18.70;58.20;;;;;;5054915;28;20502;-67
2022/01/21 09:33:36;;;;;;;3.22;1.25;;;18.70;58.20;;;;;;5054335;28;20028;-67
2022/01/21 09:36:02;;;;;;;2.05;0.93;;;18.70;58.20;;;;;;5054663;28;20031;-67
2022/01/21 09:38:29;;;;;;;1.95;0.88;;;18.70;58.20;;;;;;5054817;28;20039;-67
2022/01/21 09:40:55;;;;;;;3.47;1.00;;;18.70;58.20;;;;;;5055793;28;20021;-67
2022/01/21 09:43:21;;;;;;;4.43;1.00;;;18.70;58.20;;;;;;5054865;28;20491;-67
2022/01/21 09:45:52;;;;;;;2.45;0.80;;;18.60;58.10;;;;;;5055645;28;20056;-67
2022/01/21 09:48:25;;;;;;;2.10;0.90;;;18.70;58.20;;;;;;5055522;28;20102;-67
2022/01/21 09:50:52;;;;;;;3.58;1.20;;;18.70;58.20;;;;;;5021735;28;20449;-67
2022/01/21 09:53:32;;;;;;;4.03;1.30;;;18.70;58.20;;;;;;5054731;28;20013;-67
2022/01/21 09:56:01;;;;;;;1.52;0.90;;;18.70;58.20;;;;;;5054495;28;20036;-67
2022/01/21 09:58:27;;;;;;;2.28;1.00;;;18.60;58.10;;;;;;5038250;28;20091;-67
2022/01/21 10:00:54;;;;;;;3.13;0.90;;;18.70;58.20;;;;;;5055289;28;20032;-67
2022/01/21 10:03:22;;;;;;;1.50;0.88;;;18.70;58.20;;;;;;5037472;28;20021;-67
2022/01/21 10:05:48;;;;;;;2.35;0.68;;;18.70;58.20;;;;;;5035799;28;20041;-67
2022/01/21 10:08:14;;;;;;;2.03;0.90;;;18.70;58.20;;;;;;5034268;28;20502;-67
2022/01/21 10:10:41;;;;;;;1.40;0.90;;;18.60;58.10;;;;;;5034066;28;20021;-67
2022/01/21 10:13:08;;;;;;;3.33;0.77;;;18.60;58.10;;;;;;5049728;28;20013;-67
2022/01/21 10:15:34;;;;;;;1.25;0.70;;;18.60;58.10;;;;;;5055147;28;20024;-67
2022/01/21 10:18:08;;;;;;;3.88;0.93;;;18.60;58.10;;;;;;5053739;28;20013;-67
2022/01/21 10:20:34;;;;;;;5.13;0.85;;;18.60;58.10;;;;;;5054232;28;20063;-67
2022/01/21 10:23:08;;;;;;;2.70;1.00;;;18.60;58.10;;;;;;5054862;28;20106;-67
2022/01/21 10:25:35;;;;;;;1.55;0.80;;;18.70;58.10;;;;;;5053832;28;20029;-67
2022/01/21 10:28:12;;;;;;;1.70;0.80;;;18.70;58.10;;;;;;5053535;28;20118;-67
2022/01/21 10:30:38;;;;;;;1.63;0.70;;;18.70;58.10;;;;;;5054924;28;20029;-67
2022/01/21 10:33:23;;;;;;;3.20;0.95;;;18.60;58.10;;;;;;5053213;28;20535;-67
2022/01/21 10:35:51;;;;;;;1.15;0.70;;;18.70;58.10;;;;;;5054639;28;20506;-67
2022/01/21 10:38:23;;;;;;;3.10;0.90;;;18.60;58.10;;;;;;5054777;28;20030;-67
2022/01/21 10:40:49;;;;;;;1.50;0.93;;;18.60;58.10;;;;;;5037097;28;20040;-67
2022/01/21 10:43:16;;;;;;;0.98;0.70;;;18.60;58.10;;;;;;5054777;28;20025;-67
2022/01/21 10:45:53;;;;;;;1.75;0.82;;;18.60;58.00;;;;;;5053434;28;20029;-67
2022/01/21 10:48:18;;;;;;;1.33;0.80;;;18.60;58.00;;;;;;5054301;28;20024;-67
2022/01/21 10:50:44;;;;;;;3.00;0.90;;;18.60;58.00;;;;;;5054605;28;20033;-67
2022/01/21 10:53:29;;;;;;;2.15;0.82;;;18.60;58.00;;;;;;5053426;28;20028;-67
2022/01/21 10:56:02;;;;;;;1.92;0.82;;;18.70;58.00;;;;;;5053320;28;20017;-67
2022/01/21 10:58:27;;;;;;;0.95;0.60;;;18.60;58.00;;;;;;5037866;28;20480;-67
2022/01/21 11:01:02;;;;;;;1.15;0.70;;;18.60;58.00;;;;;;5019503;28;20033;-67
2022/01/21 11:03:29;;;;;;;3.85;0.63;;;18.60;58.00;;;;;;5053153;28;20067;-67
2022/01/21 11:06:16;;;;;;;0.80;0.70;;;18.60;58.00;;;;;;5032925;28;20025;-67
2022/01/21 11:08:41;;;;;;;2.47;0.90;;;18.70;58.00;;;;;;5033378;28;20068;-67
2022/01/21 11:11:07;;;;;;;1.23;0.80;;;18.60;58.00;;;;;;5033078;28;20026;-67
2022/01/21 11:13:36;;;;;;;1.60;0.88;;;18.60;58.00;;;;;;5052114;28;20026;-67
2022/01/21 11:16:06;;;;;;;0.65;0.50;;;18.60;58.00;;;;;;5036391;28;20071;-67
2022/01/21 11:18:31;;;;;;;3.70;0.90;;;18.60;58.00;;;;;;5054317;28;20399;-67
2022/01/21 11:21:05;;;;;;;1.25;0.60;;;18.60;58.00;;;;;;5052605;28;20033;-67
2022/01/21 11:23:32;;;;;;;1.15;0.90;;;18.60;58.00;;;;;;5052844;28;20083;-67
2022/01/21 11:26:00;;;;;;;1.65;0.75;;;18.60;58.00;;;;;;5036147;28;20548;-67
2022/01/21 11:28:36;;;;;;;1.35;0.60;;;18.60;58.00;;;;;;5052623;28;20037;-67
2022/01/21 11:31:02;;;;;;;1.83;0.55;;;18.60;58.00;;;;;;5052424;28;20107;-67
2022/01/21 11:33:28;;;;;;;2.63;0.80;;;18.60;58.00;;;;;;5053830;28;20097;-67
2022/01/21 11:35:53;;;;;;;3.67;0.77;;;18.60;58.00;;;;;;5052441;28;20051;-67
2022/01/21 11:38:20;;;;;;;1.45;0.80;;;18.60;57.90;;;;;;5052638;28;20025;-67
2022/01/21 11:40:47;;;;;;;1.17;0.60;;;18.60;57.90;;;;;;5053717;28;20031;-67
2022/01/21 11:43:13;;;;;;;1.27;0.75;;;18.60;58.00;;;;;;5035176;28;20036;-67
2022/01/21 11:50:49;;;;;;;0.95;0.63;;;18.60;57.90;;;;;;5037721;28;20037;-67
2022/01/21 11:53:15;;;;;;;1.02;0.80;;;18.60;57.90;;;;;;5052146;28;20031;-67
2022/01/21 11:55:47;;;;;;;0.73;0.70;;;18.60;57.90;;;;;;5052095;28;20021;-67
2022/01/21 11:58:14;;;;;;;1.27;0.52;;;18.60;57.90;;;;;;5035978;28;20023;-67
2022/01/21 12:00:40;;;;;;;0.40;0.40;;;18.60;57.90;;;;;;5053048;28;20025;-67
2022/01/21 12:03:06;;;;;;;1.38;0.73;;;18.60;57.90;;;;;;5035393;28;20053;-67
2022/01/21 12:05:33;;;;;;;0.93;0.55;;;18.60;57.90;;;;;;5018145;28;20108;-67
2022/01/21 12:08:03;;;;;;;1.35;0.60;;;18.60;57.90;;;;;;5032023;28;20020;-67
2022/01/21 12:10:33;;;;;;;0.73;0.50;;;18.60;57.80;;;;;;5032036;28;20033;-67
2022/01/21 12:13:07;;;;;;;1.45;0.60;;;18.60;57.90;;;;;;5047051;28;20013;-67
2022/01/21 12:16:33;;;;;;;0.68;0.50;;;18.60;57.80;;;;;;5051878;28;20050;-67
2022/01/21 12:18:40;;;;;;;1.05;0.70;;;18.60;57.80;;;;;;5056641;28;20053;-67
2022/01/21 12:21:25;;;;;;;0.52;0.50;;;18.60;57.90;;;;;;5052753;28;20071;-67
2022/01/21 12:23:52;;;;;;;1.80;0.70;;;18.60;57.80;;;;;;5052983;28;20057;-67
2022/01/21 12:26:21;;;;;;;0.70;0.60;;;18.60;57.90;;;;;;5051504;28;20036;-67
2022/01/21 12:28:59;;;;;;;1.90;0.77;;;18.60;57.90;;;;;;5052378;28;20044;-67
2022/01/21 12:31:25;;;;;;;0.75;0.63;;;18.60;57.90;;;;;;5052868;28;20053;-67
2022/01/21 12:36:26;;;;;;;1.15;0.63;;;18.60;57.90;;;;;;5052502;28;20112;-67
2022/01/21 12:41:17;;;;;;;0.50;0.40;;;18.60;57.90;;;;;;5034931;28;20035;-67
2022/01/21 12:43:48;;;;;;;1.48;0.60;;;18.60;57.80;;;;;;5052092;28;20033;-67
2022/01/21 12:46:22;;;;;;;0.45;0.43;;;18.60;57.90;;;;;;5052437;28;20025;-67
2022/01/21 12:48:48;;;;;;;1.27;0.50;;;18.60;57.80;;;;;;5052439;28;20025;-67
2022/01/21 12:51:21;;;;;;;0.68;0.60;;;18.60;57.80;;;;;;5052405;28;20017;-67
2022/01/21 12:56:58;;;;;;;0.60;0.50;;;18.70;58.70;;;;;;5051943;28;20564;-67
2022/01/21 12:59:26;;;;;;;1.13;0.52;;;18.60;57.90;;;;;;5052221;28;20479;-67
2022/01/21 13:01:51;;;;;;;1.02;0.45;;;18.60;57.80;;;;;;5051192;28;20467;-67
2022/01/21 13:04:45;;;;;;;1.83;0.40;;;18.60;57.90;;;;;;5027494;28;20029;-67
2022/01/21 13:07:23;;;;;;;1.40;0.60;;;18.70;57.80;;;;;;5032209;28;20021;-67
2022/01/21 13:10:08;;;;;;;1.00;0.60;;;18.60;57.90;;;;;;5032298;28;20547;-67
2022/01/21 13:15:55;;;;;;;0.50;0.50;;;18.70;57.80;;;;;;5051183;28;20021;-67
2022/01/21 13:18:29;;;;;;;1.02;0.55;;;18.70;57.70;;;;;;5050057;28;20040;-67
2022/01/21 13:21:05;;;;;;;1.00;0.45;;;18.60;57.90;;;;;;5050977;28;20021;-67
2022/01/21 13:23:55;;;;;;;0.60;0.45;;;18.60;57.90;;;;;;5034423;28;20463;-67
2022/01/21 13:26:31;;;;;;;0.52;0.52;;;18.70;57.80;;;;;;5051359;28;20055;-69
2022/01/21 13:29:10;;;;;;;0.77;0.70;;;18.60;57.80;;;;;;5051923;28;20132;-69
2022/01/21 13:31:46;;;;;;;0.57;0.50;;;18.60;57.80;;;;;;5050775;28;20017;-69
2022/01/21 13:34:17;;;;;;;1.27;0.90;;;18.70;57.90;;;;;;5050719;28;20023;-69
2022/01/21 13:36:54;;;;;;;1.00;0.50;;;18.60;57.80;;;;;;5034808;28;20028;-69
2022/01/21 13:39:24;;;;;;;0.88;0.40;;;18.60;57.80;;;;;;5050727;28;20112;-69
2022/01/21 13:42:02;;;;;;;0.35;0.35;;;18.60;57.80;;;;;;5050367;28;20561;-67
2022/01/21 13:44:34;;;;;;;0.40;0.40;;;18.60;57.80;;;;;;5051797;28;20035;-67
2022/01/21 13:47:02;;;;;;;0.75;0.70;;;18.60;57.80;;;;;;5050656;28;20051;-67
2022/01/21 13:49:28;;;;;;;0.80;0.50;;;18.60;57.80;;;;;;5034124;28;20029;-67
2022/01/21 13:51:56;;;;;;;1.13;0.40;;;18.60;57.80;;;;;;5034076;28;20078;-67
2022/01/21 13:54:35;;;;;;;1.17;0.38;;;18.70;57.80;;;;;;5051668;28;20082;-67
2022/01/21 13:57:01;;;;;;;0.93;0.70;;;18.70;57.70;;;;;;5051778;28;20051;-69